createdAt,value
2019-01-24T00:00:27.307Z,-4.78
2019-01-24T00:01:35.325Z,-4.75
2019-01-24T00:02:45.223Z,-4.77
2019-01-24T00:03:53.089Z,-4.75
2019-01-24T00:05:02.027Z,-4.76
2019-01-24T00:06:11.473Z,-4.76
2019-01-24T00:07:19.400Z,-4.76
2019-01-24T00:08:27.334Z,-4.77
2019-01-24T00:09:35.111Z,-4.78
2019-01-24T00:10:42.817Z,-4.83
2019-01-24T00:11:50.954Z,-4.82
2019-01-24T00:12:58.871Z,-4.84
2019-01-24T00:14:06.591Z,-4.82
2019-01-24T00:15:14.379Z,-4.82
2019-01-24T00:16:22.318Z,-4.79
2019-01-24T00:17:30.031Z,-4.76
2019-01-24T00:18:38.207Z,-4.75
2019-01-24T00:19:46.049Z,-4.74
2019-01-24T00:20:54.149Z,-4.74
2019-01-24T00:22:02.044Z,-4.75
2019-01-24T00:23:09.916Z,-4.74
2019-01-24T00:24:17.812Z,-4.72
2019-01-24T00:25:25.600Z,-4.73
2019-01-24T00:26:33.526Z,-4.74
2019-01-24T00:27:41.043Z,-4.74
2019-01-24T00:28:51.760Z,-4.75
2019-01-24T00:29:59.522Z,-4.76
2019-01-24T00:31:07.318Z,-4.80
2019-01-24T00:32:14.915Z,-4.79
2019-01-24T00:33:22.483Z,-4.76
2019-01-24T00:34:30.123Z,-4.73
2019-01-24T00:35:37.959Z,-4.70
2019-01-24T00:36:45.543Z,-4.69
2019-01-24T00:37:53.331Z,-4.70
2019-01-24T00:39:01.435Z,-4.70
2019-01-24T00:40:22.946Z,-4.75
2019-01-24T00:41:30.524Z,-4.73
2019-01-24T00:42:38.326Z,-4.74
2019-01-24T00:43:45.920Z,-4.75
2019-01-24T00:44:53.535Z,-4.74
2019-01-24T00:46:01.337Z,-4.75
2019-01-24T00:47:09.130Z,-4.75
2019-01-24T00:48:17.300Z,-4.75
2019-01-24T00:49:25.031Z,-4.76
2019-01-24T00:50:32.821Z,-4.77
2019-01-24T00:51:40.695Z,-4.76
2019-01-24T00:52:48.341Z,-4.76
2019-01-24T00:53:56.555Z,-4.75
2019-01-24T00:55:05.793Z,-4.77
2019-01-24T00:56:13.572Z,-4.73
2019-01-24T00:57:21.550Z,-4.70
2019-01-24T00:58:29.216Z,-4.72
2019-01-24T00:59:37.088Z,-4.73
2019-01-24T01:00:45.192Z,-4.76
2019-01-24T01:01:52.792Z,-4.78
2019-01-24T01:03:00.961Z,-4.78
2019-01-24T01:04:08.621Z,-4.79
2019-01-24T01:05:16.303Z,-4.83
2019-01-24T01:06:24.336Z,-4.80
2019-01-24T01:07:32.039Z,-4.81
2019-01-24T01:08:40.023Z,-4.82
2019-01-24T01:09:47.655Z,-4.84
2019-01-24T01:10:55.290Z,-4.83
2019-01-24T01:12:03.715Z,-4.80
2019-01-24T01:13:11.710Z,-4.80
2019-01-24T01:14:19.652Z,-4.77
2019-01-24T01:15:27.310Z,-4.78
2019-01-24T01:16:34.966Z,-4.78
2019-01-24T01:17:42.974Z,-4.79
2019-01-24T01:18:50.682Z,-4.79
2019-01-24T01:19:58.531Z,-4.84
2019-01-24T01:21:07.350Z,-4.87
2019-01-24T01:22:15.261Z,-4.90
2019-01-24T01:23:22.913Z,-4.90
2019-01-24T01:24:30.689Z,-4.88
2019-01-24T01:25:38.399Z,-4.89
2019-01-24T01:26:46.305Z,-4.90
2019-01-24T01:27:53.954Z,-4.90
2019-01-24T01:29:01.998Z,-4.91
2019-01-24T01:30:22.000Z,-4.90
2019-01-24T01:31:29.992Z,-4.90
2019-01-24T01:32:38.014Z,-4.91
2019-01-24T01:33:45.678Z,-4.92
2019-01-24T01:34:53.338Z,-4.92
2019-01-24T01:36:01.326Z,-4.94
2019-01-24T01:37:09.251Z,-4.94
2019-01-24T01:38:17.500Z,-4.94
2019-01-24T01:39:25.336Z,-4.96
2019-01-24T01:40:33.616Z,-5.02
2019-01-24T01:41:41.549Z,-5.03
2019-01-24T01:42:49.319Z,-5.09
2019-01-24T01:43:57.002Z,-5.13
2019-01-24T01:45:06.993Z,-5.12
2019-01-24T01:46:14.933Z,-5.10
2019-01-24T01:47:22.705Z,-5.07
2019-01-24T01:48:30.636Z,-5.06
2019-01-24T01:49:38.441Z,-5.05
2019-01-24T01:50:46.044Z,-5.05
2019-01-24T01:51:53.951Z,-5.05
2019-01-24T01:53:01.754Z,-5.06
2019-01-24T01:54:09.172Z,-5.03
2019-01-24T01:55:17.966Z,-5.04
2019-01-24T01:56:25.839Z,-5.03
2019-01-24T01:57:33.967Z,-5.04
2019-01-24T01:58:41.922Z,-5.04
2019-01-24T01:59:49.793Z,-5.05
2019-01-24T02:00:57.303Z,-5.10
2019-01-24T02:02:04.887Z,-5.11
2019-01-24T02:03:12.756Z,-5.11
2019-01-24T02:04:20.762Z,-5.11
2019-01-24T02:05:28.578Z,-5.06
2019-01-24T02:06:36.404Z,-5.06
2019-01-24T02:07:44.192Z,-5.06
2019-01-24T02:08:52.078Z,-5.07
2019-01-24T02:09:59.892Z,-5.07
2019-01-24T02:11:07.952Z,-5.10
2019-01-24T02:12:15.848Z,-5.12
2019-01-24T02:13:23.826Z,-5.13
2019-01-24T02:14:31.745Z,-5.14
2019-01-24T02:15:39.523Z,-5.14
2019-01-24T02:16:47.451Z,-5.12
2019-01-24T02:17:55.717Z,-5.13
2019-01-24T02:19:03.420Z,-5.13
2019-01-24T02:20:18.665Z,-5.14
2019-01-24T02:21:26.584Z,-5.15
2019-01-24T02:22:34.534Z,-5.17
2019-01-24T02:23:42.821Z,-5.15
2019-01-24T02:24:50.716Z,-5.14
2019-01-24T02:25:58.418Z,-5.10
2019-01-24T02:27:10.752Z,-5.05
2019-01-24T02:28:18.534Z,-5.06
2019-01-24T02:29:26.723Z,-5.07
2019-01-24T02:30:34.764Z,-5.08
2019-01-24T02:31:42.713Z,-5.08
2019-01-24T02:32:50.701Z,-5.06
2019-01-24T02:33:58.504Z,-5.05
2019-01-24T02:35:09.045Z,-5.05
2019-01-24T02:36:16.769Z,-5.06
2019-01-24T02:37:24.521Z,-5.06
2019-01-24T02:38:32.425Z,-5.08
2019-01-24T02:39:40.634Z,-5.14
2019-01-24T02:40:48.633Z,-5.16
2019-01-24T02:41:56.482Z,-5.15
2019-01-24T02:43:04.696Z,-5.15
2019-01-24T02:44:12.698Z,-5.17
2019-01-24T02:45:23.302Z,-5.16
2019-01-24T02:46:31.131Z,-5.16
2019-01-24T02:47:38.706Z,-5.15
2019-01-24T02:48:46.441Z,-5.14
2019-01-24T02:49:54.557Z,-5.12
2019-01-24T02:51:02.144Z,-5.10
2019-01-24T02:52:09.871Z,-5.11
2019-01-24T02:53:17.760Z,-5.14
2019-01-24T02:54:25.607Z,-5.15
2019-01-24T02:55:33.451Z,-5.16
2019-01-24T02:56:41.437Z,-5.13
2019-01-24T02:57:49.495Z,-5.15
2019-01-24T02:58:57.475Z,-5.16
2019-01-24T03:00:08.967Z,-5.21
2019-01-24T03:01:16.709Z,-5.22
2019-01-24T03:02:24.758Z,-5.25
2019-01-24T03:03:32.168Z,-5.27
2019-01-24T03:04:39.847Z,-5.31
2019-01-24T03:05:48.048Z,-5.30
2019-01-24T03:06:56.095Z,-5.29
2019-01-24T03:08:04.065Z,-5.30
2019-01-24T03:09:12.393Z,-5.29
2019-01-24T03:10:24.244Z,-5.33
2019-01-24T03:11:32.625Z,-5.33
2019-01-24T03:12:41.032Z,-5.35
2019-01-24T03:13:48.812Z,-5.31
2019-01-24T03:14:56.721Z,-5.31
2019-01-24T03:16:05.012Z,-5.31
2019-01-24T03:17:12.726Z,-5.31
2019-01-24T03:18:20.314Z,-5.33
2019-01-24T03:19:28.070Z,-5.36
2019-01-24T03:20:36.017Z,-5.37
2019-01-24T03:21:43.547Z,-5.39
2019-01-24T03:22:51.595Z,-5.38
2019-01-24T03:23:59.236Z,-5.37
2019-01-24T03:25:10.103Z,-5.34
2019-01-24T03:26:17.875Z,-5.33
2019-01-24T03:27:25.672Z,-5.33
2019-01-24T03:28:33.455Z,-5.36
2019-01-24T03:29:41.361Z,-5.35
2019-01-24T03:30:49.181Z,-5.32
2019-01-24T03:31:56.960Z,-5.32
2019-01-24T03:33:04.611Z,-5.29
2019-01-24T03:34:12.454Z,-5.26
2019-01-24T03:35:27.526Z,-5.23
2019-01-24T03:36:35.306Z,-5.25
2019-01-24T03:37:43.514Z,-5.27
2019-01-24T03:38:51.090Z,-5.27
2019-01-24T03:39:59.109Z,-5.27
2019-01-24T03:41:06.724Z,-5.23
2019-01-24T03:42:14.411Z,-5.21
2019-01-24T03:43:22.305Z,-5.21
2019-01-24T03:44:30.041Z,-5.21
2019-01-24T03:45:38.030Z,-5.22
2019-01-24T03:46:45.790Z,-5.21
2019-01-24T03:47:53.925Z,-5.18
2019-01-24T03:49:01.786Z,-5.16
2019-01-24T03:50:18.690Z,-5.20
2019-01-24T03:51:26.646Z,-5.24
2019-01-24T03:52:34.690Z,-5.27
2019-01-24T03:53:42.396Z,-5.25
2019-01-24T03:54:50.332Z,-5.24
2019-01-24T03:55:58.210Z,-5.21
2019-01-24T03:57:06.154Z,-5.18
2019-01-24T03:58:14.196Z,-5.16
2019-01-24T03:59:21.938Z,-5.13
2019-01-24T04:00:29.730Z,-5.11
2019-01-24T04:01:37.748Z,-5.12
2019-01-24T04:02:45.807Z,-5.17
2019-01-24T04:03:53.845Z,-5.22
2019-01-24T04:05:01.500Z,-5.25
2019-01-24T04:06:09.315Z,-5.24
2019-01-24T04:07:17.046Z,-5.22
2019-01-24T04:08:24.944Z,-5.19
2019-01-24T04:09:32.834Z,-5.16
2019-01-24T04:10:40.536Z,-5.17
2019-01-24T04:11:48.454Z,-5.22
2019-01-24T04:12:56.346Z,-5.25
2019-01-24T04:14:03.962Z,-5.27
2019-01-24T04:15:21.145Z,-5.29
2019-01-24T04:16:28.852Z,-5.33
2019-01-24T04:17:36.823Z,-5.34
2019-01-24T04:18:44.283Z,-5.32
2019-01-24T04:19:52.209Z,-5.31
2019-01-24T04:20:59.993Z,-5.30
2019-01-24T04:22:07.662Z,-5.28
2019-01-24T04:23:15.223Z,-5.27
2019-01-24T04:24:23.633Z,-5.26
2019-01-24T04:25:31.323Z,-5.27
2019-01-24T04:26:38.909Z,-5.29
2019-01-24T04:27:46.519Z,-5.33
2019-01-24T04:28:54.302Z,-5.37
2019-01-24T04:30:02.212Z,-5.37
2019-01-24T04:31:10.111Z,-5.38
2019-01-24T04:32:17.887Z,-5.39
2019-01-24T04:33:25.940Z,-5.42
2019-01-24T04:34:33.805Z,-5.46
2019-01-24T04:35:41.747Z,-5.44
2019-01-24T04:36:49.686Z,-5.42
2019-01-24T04:37:57.472Z,-5.39
2019-01-24T04:39:07.626Z,-5.38
2019-01-24T04:40:18.086Z,-5.37
2019-01-24T04:41:25.913Z,-5.39
2019-01-24T04:42:33.904Z,-5.36
2019-01-24T04:43:41.719Z,-5.34
2019-01-24T04:44:49.688Z,-5.32
2019-01-24T04:45:57.409Z,-5.32
2019-01-24T04:47:05.087Z,-5.32
2019-01-24T04:48:12.907Z,-5.36
2019-01-24T04:49:21.386Z,-5.39
2019-01-24T04:50:29.072Z,-5.40
2019-01-24T04:51:36.717Z,-5.38
2019-01-24T04:52:44.509Z,-5.37
2019-01-24T04:53:52.749Z,-5.36
2019-01-24T04:55:00.753Z,-5.34
2019-01-24T04:56:08.566Z,-5.34
2019-01-24T04:57:16.864Z,-5.31
2019-01-24T04:58:24.578Z,-5.29
2019-01-24T04:59:32.643Z,-5.28
2019-01-24T05:00:40.872Z,-5.25
2019-01-24T05:01:48.729Z,-5.25
2019-01-24T05:02:56.598Z,-5.24
2019-01-24T05:04:04.495Z,-5.25
2019-01-24T05:05:12.384Z,-5.30
2019-01-24T05:06:20.479Z,-5.34
2019-01-24T05:07:28.125Z,-5.33
2019-01-24T05:08:35.703Z,-5.38
2019-01-24T05:09:43.314Z,-5.38
2019-01-24T05:10:50.705Z,-5.38
2019-01-24T05:11:58.530Z,-5.41
2019-01-24T05:13:06.324Z,-5.42
2019-01-24T05:14:14.098Z,-5.43
2019-01-24T05:15:23.361Z,-5.43
2019-01-24T05:16:31.715Z,-5.41
2019-01-24T05:17:39.743Z,-5.37
2019-01-24T05:18:47.518Z,-5.34
2019-01-24T05:19:55.291Z,-5.35
2019-01-24T05:21:03.045Z,-5.33
2019-01-24T05:22:10.870Z,-5.35
2019-01-24T05:23:18.932Z,-5.38
2019-01-24T05:24:26.934Z,-5.41
2019-01-24T05:25:34.601Z,-5.40
2019-01-24T05:26:42.553Z,-5.43
2019-01-24T05:27:50.325Z,-5.43
2019-01-24T05:28:58.169Z,-5.49
2019-01-24T05:30:16.648Z,-5.50
2019-01-24T05:31:24.339Z,-5.50
2019-01-24T05:32:32.952Z,-5.51
2019-01-24T05:33:40.751Z,-5.52
2019-01-24T05:34:48.791Z,-5.49
2019-01-24T05:35:56.520Z,-5.47
2019-01-24T05:37:04.242Z,-5.50
2019-01-24T05:38:12.214Z,-5.55
2019-01-24T05:39:20.161Z,-5.56
2019-01-24T05:40:27.844Z,-5.59
2019-01-24T05:41:35.606Z,-5.62
2019-01-24T05:42:43.580Z,-5.65
2019-01-24T05:43:51.363Z,-5.65
2019-01-24T05:44:58.877Z,-5.66
2019-01-24T05:46:07.144Z,-5.64
2019-01-24T05:47:14.854Z,-5.58
2019-01-24T05:48:22.644Z,-5.54
2019-01-24T05:49:30.641Z,-5.52
2019-01-24T05:50:38.407Z,-5.47
2019-01-24T05:51:46.192Z,-5.44
2019-01-24T05:52:54.129Z,-5.44
2019-01-24T05:54:01.759Z,-5.45
2019-01-24T05:55:12.846Z,-5.50
2019-01-24T05:56:21.046Z,-5.53
2019-01-24T05:57:28.992Z,-5.55
2019-01-24T05:58:36.744Z,-5.57
2019-01-24T05:59:44.689Z,-5.58
2019-01-24T06:00:52.560Z,-5.57
2019-01-24T06:02:00.588Z,-5.59
2019-01-24T06:03:08.411Z,-5.58
2019-01-24T06:04:16.301Z,-5.60
2019-01-24T06:05:24.221Z,-5.56
2019-01-24T06:06:32.083Z,-5.58
2019-01-24T06:07:39.868Z,-5.57
2019-01-24T06:08:47.567Z,-5.57
2019-01-24T06:09:55.296Z,-5.59
2019-01-24T06:11:03.035Z,-5.64
2019-01-24T06:12:10.818Z,-5.63
2019-01-24T06:13:21.371Z,-5.65
2019-01-24T06:14:29.276Z,-5.61
2019-01-24T06:15:37.082Z,-5.63
2019-01-24T06:16:44.863Z,-5.59
2019-01-24T06:17:52.813Z,-5.56
2019-01-24T06:19:00.501Z,-5.53
2019-01-24T06:20:10.215Z,-5.55
2019-01-24T06:21:18.333Z,-5.57
2019-01-24T06:22:26.308Z,-5.56
2019-01-24T06:23:33.958Z,-5.53
2019-01-24T06:24:42.886Z,-5.51
2019-01-24T06:25:50.944Z,-5.49
2019-01-24T06:26:59.354Z,-5.49
2019-01-24T06:28:07.215Z,-5.47
2019-01-24T06:29:17.059Z,-5.49
2019-01-24T06:30:25.480Z,-5.52
2019-01-24T06:31:34.912Z,-5.55
2019-01-24T06:32:42.730Z,-5.61
2019-01-24T06:33:50.710Z,-5.61
2019-01-24T06:34:58.883Z,-5.60
2019-01-24T06:36:06.701Z,-5.58
2019-01-24T06:37:14.369Z,-5.57
2019-01-24T06:38:22.495Z,-5.55
2019-01-24T06:39:30.587Z,-5.52
2019-01-24T06:40:38.287Z,-5.52
2019-01-24T06:41:46.271Z,-5.53
2019-01-24T06:42:53.989Z,-5.51
2019-01-24T06:44:02.098Z,-5.53
2019-01-24T06:45:20.644Z,-5.50
2019-01-24T06:46:28.458Z,-5.51
2019-01-24T06:47:36.408Z,-5.52
2019-01-24T06:48:44.670Z,-5.52
2019-01-24T06:49:52.333Z,-5.52
2019-01-24T06:51:00.554Z,-5.50
2019-01-24T06:52:08.417Z,-5.49
2019-01-24T06:53:16.644Z,-5.48
2019-01-24T06:54:24.681Z,-5.45
2019-01-24T06:55:32.740Z,-5.48
2019-01-24T06:56:40.814Z,-5.47
2019-01-24T06:57:48.640Z,-5.47
2019-01-24T06:58:56.668Z,-5.51
2019-01-24T07:00:06.466Z,-5.53
2019-01-24T07:01:14.674Z,-5.53
2019-01-24T07:02:23.232Z,-5.50
2019-01-24T07:03:31.074Z,-5.49
2019-01-24T07:04:38.958Z,-5.49
2019-01-24T07:05:46.753Z,-5.46
2019-01-24T07:06:55.032Z,-5.47
2019-01-24T07:08:03.356Z,-5.50
2019-01-24T07:09:11.445Z,-5.52
2019-01-24T07:10:22.717Z,-5.55
2019-01-24T07:11:30.721Z,-5.58
2019-01-24T07:12:38.711Z,-5.59
2019-01-24T07:13:46.915Z,-5.60
2019-01-24T07:14:55.101Z,-5.57
2019-01-24T07:16:03.303Z,-5.56
2019-01-24T07:17:11.766Z,-5.56
2019-01-24T07:18:20.066Z,-5.52
2019-01-24T07:19:27.761Z,-5.49
2019-01-24T07:20:38.609Z,-5.50
2019-01-24T07:21:46.676Z,-5.51
2019-01-24T07:22:55.481Z,-5.50
2019-01-24T07:24:03.304Z,-5.50
2019-01-24T07:25:24.094Z,-5.51
2019-01-24T07:26:31.773Z,-5.53
2019-01-24T07:27:39.665Z,-5.52
2019-01-24T07:28:47.538Z,-5.49
2019-01-24T07:29:55.532Z,-5.45
2019-01-24T07:31:03.403Z,-5.43
2019-01-24T07:32:11.267Z,-5.44
2019-01-24T07:33:19.551Z,-5.47
2019-01-24T07:34:27.511Z,-5.48
2019-01-24T07:35:35.594Z,-5.49
2019-01-24T07:36:43.674Z,-5.51
2019-01-24T07:37:51.750Z,-5.49
2019-01-24T07:38:59.593Z,-5.46
2019-01-24T07:40:11.432Z,-5.44
2019-01-24T07:41:19.320Z,-5.48
2019-01-24T07:42:27.335Z,-5.47
2019-01-24T07:43:35.191Z,-5.48
2019-01-24T07:44:42.979Z,-5.48
2019-01-24T07:45:51.240Z,-5.50
2019-01-24T07:46:59.239Z,-5.49
2019-01-24T07:48:07.211Z,-5.50
2019-01-24T07:49:15.257Z,-5.51
2019-01-24T07:50:23.579Z,-5.54
2019-01-24T07:51:31.687Z,-5.58
2019-01-24T07:52:39.531Z,-5.59
2019-01-24T07:53:47.628Z,-5.61
2019-01-24T07:54:55.317Z,-5.57
2019-01-24T07:56:03.498Z,-5.56
2019-01-24T07:57:11.146Z,-5.56
2019-01-24T07:58:18.909Z,-5.57
2019-01-24T07:59:27.129Z,-5.57
2019-01-24T08:00:35.049Z,-5.57
2019-01-24T08:01:43.023Z,-5.53
2019-01-24T08:02:50.913Z,-5.49
2019-01-24T08:03:59.031Z,-5.46
2019-01-24T08:05:11.200Z,-5.43
2019-01-24T08:06:18.890Z,-5.43
2019-01-24T08:07:26.748Z,-5.42
2019-01-24T08:08:34.707Z,-5.39
2019-01-24T08:09:42.216Z,-5.34
2019-01-24T08:10:49.784Z,-5.33
2019-01-24T08:11:57.633Z,-5.30
2019-01-24T08:13:05.965Z,-5.25
2019-01-24T08:14:13.809Z,-5.22
2019-01-24T08:15:23.547Z,-5.22
2019-01-24T08:16:31.585Z,-5.22
2019-01-24T08:17:39.513Z,-5.25
2019-01-24T08:18:47.273Z,-5.25
2019-01-24T08:19:55.053Z,-5.24
2019-01-24T08:21:03.159Z,-5.23
2019-01-24T08:22:10.506Z,-5.24
2019-01-24T08:23:18.426Z,-5.28
2019-01-24T08:24:25.883Z,-5.29
2019-01-24T08:25:33.768Z,-5.28
2019-01-24T08:26:41.640Z,-5.26
2019-01-24T08:27:49.524Z,-5.24
2019-01-24T08:28:57.614Z,-5.24
2019-01-24T08:30:10.118Z,-5.19
2019-01-24T08:31:17.869Z,-5.16
2019-01-24T08:32:25.669Z,-5.15
2019-01-24T08:33:33.435Z,-5.14
2019-01-24T08:34:40.989Z,-5.13
2019-01-24T08:35:48.927Z,-5.12
2019-01-24T08:36:57.119Z,-5.12
2019-01-24T08:38:04.775Z,-5.09
2019-01-24T08:39:12.841Z,-5.12
2019-01-24T08:40:22.543Z,-5.13
2019-01-24T08:41:30.602Z,-5.13
2019-01-24T08:42:38.629Z,-5.17
2019-01-24T08:43:46.349Z,-5.21
2019-01-24T08:44:54.208Z,-5.22
2019-01-24T08:46:02.000Z,-5.25
2019-01-24T08:47:10.153Z,-5.22
2019-01-24T08:48:17.778Z,-5.20
2019-01-24T08:49:25.877Z,-5.16
2019-01-24T08:50:33.925Z,-5.16
2019-01-24T08:51:41.475Z,-5.17
2019-01-24T08:52:49.838Z,-5.21
2019-01-24T08:53:57.651Z,-5.22
2019-01-24T08:55:08.737Z,-5.24
2019-01-24T08:56:16.518Z,-5.25
2019-01-24T08:57:24.129Z,-5.27
2019-01-24T08:58:31.815Z,-5.22
2019-01-24T08:59:39.565Z,-5.18
2019-01-24T09:00:47.580Z,-5.16
2019-01-24T09:01:55.630Z,-5.16
2019-01-24T09:03:03.384Z,-5.16
2019-01-24T09:04:11.339Z,-5.17
2019-01-24T09:05:18.940Z,-5.12
2019-01-24T09:06:27.123Z,-5.09
2019-01-24T09:07:35.048Z,-5.05
2019-01-24T09:08:42.690Z,-5.03
2019-01-24T09:09:50.800Z,-4.98
2019-01-24T09:10:58.866Z,-4.95
2019-01-24T09:12:06.329Z,-4.94
2019-01-24T09:13:14.089Z,-4.92
2019-01-24T09:14:22.221Z,-4.90
2019-01-24T09:15:30.064Z,-4.86
2019-01-24T09:16:37.688Z,-4.84
2019-01-24T09:17:45.899Z,-4.81
2019-01-24T09:18:53.518Z,-4.79
2019-01-24T09:20:01.496Z,-4.78
2019-01-24T09:21:09.016Z,-4.77
2019-01-24T09:22:16.669Z,-4.77
2019-01-24T09:23:24.571Z,-4.76
2019-01-24T09:24:32.321Z,-4.73
2019-01-24T09:25:40.045Z,-4.70
2019-01-24T09:26:47.712Z,-4.69
2019-01-24T09:27:55.213Z,-4.72
2019-01-24T09:29:02.836Z,-4.72
2019-01-24T09:30:15.247Z,-4.73
2019-01-24T09:31:24.440Z,-4.72
2019-01-24T09:32:32.259Z,-4.72
2019-01-24T09:33:39.954Z,-4.69
2019-01-24T09:34:47.774Z,-4.67
2019-01-24T09:35:55.437Z,-4.66
2019-01-24T09:37:03.438Z,-4.69
2019-01-24T09:38:11.190Z,-4.73
2019-01-24T09:39:19.244Z,-4.71
2019-01-24T09:40:27.058Z,-4.69
2019-01-24T09:41:35.029Z,-4.63
2019-01-24T09:42:43.055Z,-4.56
2019-01-24T09:43:50.790Z,-4.51
2019-01-24T09:44:58.703Z,-4.46
2019-01-24T09:46:06.523Z,-4.41
2019-01-24T09:47:14.189Z,-4.39
2019-01-24T09:48:22.199Z,-4.38
2019-01-24T09:49:29.902Z,-4.39
2019-01-24T09:50:37.594Z,-4.45
2019-01-24T09:51:45.461Z,-4.50
2019-01-24T09:52:53.458Z,-4.52
2019-01-24T09:54:01.196Z,-4.49
2019-01-24T09:55:10.170Z,-4.49
2019-01-24T09:56:18.266Z,-4.48
2019-01-24T09:57:26.454Z,-4.43
2019-01-24T09:58:34.210Z,-4.37
2019-01-24T09:59:42.031Z,-4.34
2019-01-24T10:00:49.826Z,-4.33
2019-01-24T10:01:57.458Z,-4.33
2019-01-24T10:03:05.224Z,-4.32
2019-01-24T10:04:13.260Z,-4.32
2019-01-24T10:05:21.081Z,-4.34
2019-01-24T10:06:28.994Z,-4.36
2019-01-24T10:07:36.798Z,-4.40
2019-01-24T10:08:44.605Z,-4.46
2019-01-24T10:09:52.440Z,-4.48
2019-01-24T10:11:00.104Z,-4.55
2019-01-24T10:12:07.748Z,-4.57
2019-01-24T10:13:15.568Z,-4.57
2019-01-24T10:14:23.446Z,-4.54
2019-01-24T10:15:31.519Z,-4.55
2019-01-24T10:16:39.588Z,-4.56
2019-01-24T10:17:47.489Z,-4.54
2019-01-24T10:18:55.992Z,-4.52
2019-01-24T10:20:04.651Z,-4.51
2019-01-24T10:21:12.498Z,-4.52
2019-01-24T10:22:20.377Z,-4.54
2019-01-24T10:23:28.179Z,-4.54
2019-01-24T10:24:36.054Z,-4.50
2019-01-24T10:25:43.811Z,-4.51
2019-01-24T10:26:51.678Z,-4.52
2019-01-24T10:27:59.436Z,-4.49
2019-01-24T10:29:07.184Z,-4.50
2019-01-24T10:30:19.123Z,-4.50
2019-01-24T10:31:27.296Z,-4.53
2019-01-24T10:32:35.090Z,-4.55
2019-01-24T10:33:43.633Z,-4.58
2019-01-24T10:34:51.529Z,-4.53
2019-01-24T10:35:59.751Z,-4.50
2019-01-24T10:37:07.705Z,-4.46
2019-01-24T10:38:15.883Z,-4.44
2019-01-24T10:39:23.917Z,-4.42
2019-01-24T10:40:33.957Z,-4.42
2019-01-24T10:41:41.709Z,-4.41
2019-01-24T10:42:50.024Z,-4.37
2019-01-24T10:43:57.964Z,-4.36
2019-01-24T10:45:10.850Z,-4.36
2019-01-24T10:46:18.770Z,-4.38
2019-01-24T10:47:26.968Z,-4.42
2019-01-24T10:48:36.805Z,-4.43
2019-01-24T10:49:45.010Z,-4.42
2019-01-24T10:50:52.801Z,-4.42
2019-01-24T10:52:00.683Z,-4.46
2019-01-24T10:53:08.781Z,-4.49
2019-01-24T10:54:16.803Z,-4.47
2019-01-24T10:55:27.429Z,-4.44
2019-01-24T10:56:35.367Z,-4.40
2019-01-24T10:57:43.763Z,-4.37
2019-01-24T10:58:52.419Z,-4.35
2019-01-24T11:00:00.691Z,-4.31
2019-01-24T11:01:08.827Z,-4.26
2019-01-24T11:02:17.018Z,-4.29
2019-01-24T11:03:24.816Z,-4.28
2019-01-24T11:04:32.867Z,-4.28
2019-01-24T11:05:42.579Z,-4.26
2019-01-24T11:06:50.853Z,-4.26
2019-01-24T11:07:59.276Z,-4.27
2019-01-24T11:09:09.229Z,-4.30
2019-01-24T11:10:19.951Z,-4.30
2019-01-24T11:11:27.969Z,-4.25
2019-01-24T11:12:35.611Z,-4.22
2019-01-24T11:13:43.478Z,-4.24
2019-01-24T11:14:51.215Z,-4.26
2019-01-24T11:15:58.896Z,-4.23
2019-01-24T11:17:06.626Z,-4.22
2019-01-24T11:18:14.474Z,-4.19
2019-01-24T11:19:22.822Z,-4.17
2019-01-24T11:20:30.874Z,-4.16
2019-01-24T11:21:39.000Z,-4.10
2019-01-24T11:22:46.887Z,-4.08
2019-01-24T11:23:55.084Z,-4.06
2019-01-24T11:25:03.762Z,-4.09
2019-01-24T11:26:11.773Z,-4.04
2019-01-24T11:27:19.755Z,-4.00
2019-01-24T11:28:27.646Z,-3.99
2019-01-24T11:29:35.391Z,-3.98
2019-01-24T11:30:43.051Z,-3.96
2019-01-24T11:31:51.171Z,-3.95
2019-01-24T11:32:59.161Z,-3.97
2019-01-24T11:34:06.828Z,-3.97
2019-01-24T11:35:18.686Z,-3.98
2019-01-24T11:36:26.596Z,-4.01
2019-01-24T11:37:34.163Z,-4.02
2019-01-24T11:38:41.790Z,-4.05
2019-01-24T11:39:49.779Z,-4.07
2019-01-24T11:40:57.572Z,-4.07
2019-01-24T11:42:05.509Z,-4.12
2019-01-24T11:43:13.392Z,-4.12
2019-01-24T11:44:21.685Z,-4.08
2019-01-24T11:45:36.617Z,-4.04
2019-01-24T11:46:44.417Z,-4.01
2019-01-24T11:47:52.321Z,-4.01
2019-01-24T11:49:00.185Z,-4.03
2019-01-24T11:50:12.389Z,-4.03
2019-01-24T11:51:20.141Z,-4.03
2019-01-24T11:52:28.616Z,-4.06
2019-01-24T11:53:36.527Z,-4.09
2019-01-24T11:54:44.376Z,-4.09
2019-01-24T11:55:52.854Z,-4.04
2019-01-24T11:57:01.092Z,-4.00
2019-01-24T11:58:08.821Z,-4.01
2019-01-24T11:59:16.601Z,-4.04
2019-01-24T12:00:35.035Z,-4.07
2019-01-24T12:01:43.511Z,-4.12
2019-01-24T12:02:51.314Z,-4.19
2019-01-24T12:03:59.077Z,-4.16
2019-01-24T12:05:10.524Z,-4.14
2019-01-24T12:06:18.290Z,-4.14
2019-01-24T12:07:26.073Z,-4.11
2019-01-24T12:08:33.956Z,-4.06
2019-01-24T12:09:41.848Z,-4.00
2019-01-24T12:10:50.042Z,-3.94
2019-01-24T12:11:58.010Z,-3.95
2019-01-24T12:13:05.536Z,-3.96
2019-01-24T12:14:13.374Z,-3.96
2019-01-24T12:15:27.331Z,-3.98
2019-01-24T12:16:35.239Z,-3.98
2019-01-24T12:17:42.879Z,-3.98
2019-01-24T12:18:50.480Z,-3.98
2019-01-24T12:19:58.163Z,-4.02
2019-01-24T12:21:05.991Z,-4.08
2019-01-24T12:22:13.923Z,-4.14
2019-01-24T12:23:21.657Z,-4.16
2019-01-24T12:24:29.581Z,-4.18
2019-01-24T12:25:37.045Z,-4.19
2019-01-24T12:26:45.079Z,-4.19
2019-01-24T12:27:53.192Z,-4.18
2019-01-24T12:29:01.287Z,-4.19
2019-01-24T12:30:24.528Z,-4.21
2019-01-24T12:31:33.986Z,-4.21
2019-01-24T12:32:41.934Z,-4.19
2019-01-24T12:33:49.845Z,-4.19
2019-01-24T12:34:57.833Z,-4.15
2019-01-24T12:36:05.994Z,-4.12
2019-01-24T12:37:13.924Z,-4.10
2019-01-24T12:38:21.781Z,-4.12
2019-01-24T12:39:30.143Z,-4.10
2019-01-24T12:40:37.832Z,-4.11
2019-01-24T12:41:45.750Z,-4.10
2019-01-24T12:42:53.391Z,-4.05
2019-01-24T12:44:01.212Z,-4.04
2019-01-24T12:45:22.370Z,-4.04
2019-01-24T12:46:30.288Z,-4.06
2019-01-24T12:47:38.082Z,-4.14
2019-01-24T12:48:47.200Z,-4.19
2019-01-24T12:49:55.226Z,-4.21
2019-01-24T12:51:03.476Z,-4.25
2019-01-24T12:52:11.331Z,-4.25
2019-01-24T12:53:19.321Z,-4.23
2019-01-24T12:54:26.903Z,-4.26
2019-01-24T12:55:34.617Z,-4.28
2019-01-24T12:56:42.493Z,-4.30
2019-01-24T12:57:50.126Z,-4.33
2019-01-24T12:58:57.863Z,-4.34
2019-01-24T13:00:13.179Z,-4.32
2019-01-24T13:01:20.940Z,-4.29
2019-01-24T13:02:28.507Z,-4.28
2019-01-24T13:03:36.066Z,-4.30
2019-01-24T13:04:43.902Z,-4.31
2019-01-24T13:05:51.874Z,-4.29
2019-01-24T13:06:59.753Z,-4.28
2019-01-24T13:08:07.739Z,-4.25
2019-01-24T13:09:15.565Z,-4.28
2019-01-24T13:10:28.023Z,-4.31
2019-01-24T13:11:35.723Z,-4.34
2019-01-24T13:12:43.886Z,-4.35
2019-01-24T13:13:51.984Z,-4.35
2019-01-24T13:14:59.898Z,-4.32
2019-01-24T13:16:07.801Z,-4.28
2019-01-24T13:17:15.779Z,-4.25
2019-01-24T13:18:24.074Z,-4.22
2019-01-24T13:19:31.792Z,-4.22
2019-01-24T13:20:39.858Z,-4.22
2019-01-24T13:21:47.654Z,-4.19
2019-01-24T13:22:55.722Z,-4.19
2019-01-24T13:24:03.594Z,-4.22
2019-01-24T13:25:24.422Z,-4.22
2019-01-24T13:26:32.733Z,-4.22
2019-01-24T13:27:40.666Z,-4.23
2019-01-24T13:28:48.507Z,-4.20
2019-01-24T13:29:56.497Z,-4.18
2019-01-24T13:31:04.313Z,-4.19
2019-01-24T13:32:12.135Z,-4.17
2019-01-24T13:33:19.825Z,-4.12
2019-01-24T13:34:28.158Z,-4.10
2019-01-24T13:35:36.351Z,-4.13
2019-01-24T13:36:44.044Z,-4.19
2019-01-24T13:37:51.725Z,-4.23
2019-01-24T13:38:59.682Z,-4.25
2019-01-24T13:40:12.320Z,-4.28
2019-01-24T13:41:20.105Z,-4.31
2019-01-24T13:42:27.998Z,-4.34
2019-01-24T13:43:36.164Z,-4.35
2019-01-24T13:44:44.128Z,-4.33
2019-01-24T13:45:52.102Z,-4.32
2019-01-24T13:46:59.967Z,-4.32
2019-01-24T13:48:08.228Z,-4.31
2019-01-24T13:49:16.093Z,-4.31
2019-01-24T13:50:24.072Z,-4.31
2019-01-24T13:51:32.703Z,-4.30
2019-01-24T13:52:40.472Z,-4.31
2019-01-24T13:53:48.242Z,-4.29
2019-01-24T13:54:56.436Z,-4.26
2019-01-24T13:56:04.666Z,-4.28
2019-01-24T13:57:12.544Z,-4.31
2019-01-24T13:58:20.162Z,-4.31
2019-01-24T13:59:28.136Z,-4.31
2019-01-24T14:00:37.613Z,-4.32
2019-01-24T14:01:45.912Z,-4.34
2019-01-24T14:03:02.297Z,-4.32
2019-01-24T14:04:14.495Z,-4.33
2019-01-24T14:05:22.535Z,-4.32
2019-01-24T14:06:30.663Z,-4.30
2019-01-24T14:07:38.398Z,-4.31
2019-01-24T14:08:46.605Z,-4.31
2019-01-24T14:09:54.752Z,-4.32
2019-01-24T14:11:02.965Z,-4.35
2019-01-24T14:12:11.630Z,-4.35
2019-01-24T14:13:19.632Z,-4.34
2019-01-24T14:14:28.130Z,-4.37
2019-01-24T14:15:36.306Z,-4.40
2019-01-24T14:16:44.215Z,-4.39
2019-01-24T14:17:52.477Z,-4.38
2019-01-24T14:19:00.617Z,-4.37
2019-01-24T14:20:15.576Z,-4.37
2019-01-24T14:21:23.334Z,-4.34
2019-01-24T14:22:31.133Z,-4.30
2019-01-24T14:23:38.824Z,-4.25
2019-01-24T14:24:47.078Z,-4.24
2019-01-24T14:25:54.639Z,-4.21
2019-01-24T14:27:02.581Z,-4.19
2019-01-24T14:28:10.446Z,-4.15
2019-01-24T14:29:18.010Z,-4.11
2019-01-24T14:30:29.842Z,-4.10
2019-01-24T14:31:37.856Z,-4.10
2019-01-24T14:32:46.050Z,-4.16
2019-01-24T14:33:54.006Z,-4.20
2019-01-24T14:35:02.098Z,-4.22
2019-01-24T14:36:09.996Z,-4.25
2019-01-24T14:37:18.261Z,-4.26
2019-01-24T14:38:26.275Z,-4.26
2019-01-24T14:39:34.561Z,-4.30